Terminal Aerodrome Forecast
Issued by NWS

Home | Current Version | Previous Version | Text Only | Print | Product List | Glossary On
Versions: 1 2 3 4 5 6 7 8 9 10 11 12 13 14 15 16 17 18
000
FTUS43 KLSX 230200 AAA
TAFCPS
TAF AMD
KCPS 230219Z 2302/2324 18012KT P6SM VCSH OVC025
      TEMPO 2302/2304 5SM -SHRA OVC015
     FM230900 18010KT 5SM -SHRA SCT009 OVC015
     FM231500 15010KT 3SM -RA OVC007=

USA.gov is the U.S. government's official web portal to all federal, state and local government web resources and services.